Time;durP1;ratioP1;P1;durP2;ratioP2;P2;SDS_P1;SDS_P2;PMS_P1;PMS_P2;Temp;Humidity;BMP_temperature;BMP_pressure;BME280_temperature;BME280_humidity;BME280_pressure;Samples;Min_cycle;Max_cycle;Signal;HPM_P1;HPM_P2
2022/04/18 00:01:48;;;;;;;11.37;10.07;;;8.40;99.90;;;;;;5094721;28;20457;-71
2022/04/18 00:04:15;;;;;;;13.00;10.67;;;8.40;99.90;;;;;;5094781;28;21029;-70
2022/04/18 00:06:42;;;;;;;12.93;10.60;;;8.30;99.90;;;;;;5094328;28;20917;-71
2022/04/18 00:09:09;;;;;;;13.43;10.70;;;8.30;99.90;;;;;;5094599;28;20453;-70
2022/04/18 00:11:35;;;;;;;12.27;10.50;;;8.30;99.90;;;;;;5094923;28;20812;-70
2022/04/18 00:14:02;;;;;;;12.97;9.83;;;8.20;99.90;;;;;;5097437;28;20449;-71
2022/04/18 00:16:31;;;;;;;14.17;11.40;;;8.20;99.90;;;;;;5098971;28;20526;-70
2022/04/18 00:18:57;;;;;;;12.23;10.90;;;8.20;99.90;;;;;;5098419;28;20593;-71
2022/04/18 00:21:24;;;;;;;23.17;15.80;;;8.20;99.90;;;;;;5098817;28;20586;-71
2022/04/18 00:23:51;;;;;;;14.23;11.73;;;8.10;99.90;;;;;;5099372;28;20489;-71
2022/04/18 00:26:18;;;;;;;18.50;12.13;;;8.10;99.90;;;;;;5098696;28;20747;-70
2022/04/18 00:28:44;;;;;;;17.40;12.17;;;8.00;99.90;;;;;;5098672;28;20453;-70
2022/04/18 00:31:11;;;;;;;13.23;11.07;;;8.00;99.90;;;;;;5097798;28;20468;-70
2022/04/18 00:33:39;;;;;;;14.57;11.77;;;8.00;99.90;;;;;;5098478;28;20452;-70
2022/04/18 00:36:06;;;;;;;13.13;11.30;;;8.00;99.90;;;;;;5098200;28;20492;-70
2022/04/18 00:38:33;;;;;;;16.63;11.80;;;8.00;99.90;;;;;;5098205;28;20582;-70
2022/04/18 00:41:00;;;;;;;14.47;10.57;;;7.90;99.90;;;;;;5098193;28;20457;-70
2022/04/18 00:43:45;;;;;;;16.00;10.83;;;7.90;99.90;;;;;;5098013;28;20477;-70
2022/04/18 00:46:12;;;;;;;14.37;11.20;;;7.90;99.90;;;;;;5098067;28;20437;-70
2022/04/18 00:48:41;;;;;;;14.23;10.50;;;7.80;99.90;;;;;;5097659;28;20456;-70
2022/04/18 00:51:11;;;;;;;12.40;10.67;;;7.80;99.90;;;;;;5098205;28;20453;-70
2022/04/18 00:53:39;;;;;;;11.90;10.67;;;7.70;99.90;;;;;;5097980;28;20532;-70
2022/04/18 00:56:06;;;;;;;15.47;11.00;;;7.70;99.90;;;;;;5097685;28;20480;-70
2022/04/18 00:58:33;;;;;;;13.63;11.27;;;7.70;99.90;;;;;;5097818;28;20558;-70
2022/04/18 01:01:00;;;;;;;14.80;10.50;;;7.70;99.90;;;;;;5097933;28;20449;-70
2022/04/18 01:03:30;;;;;;;15.70;11.90;;;7.70;99.90;;;;;;5097780;28;20581;-70
2022/04/18 01:05:59;;;;;;;13.63;11.87;;;7.70;99.90;;;;;;5097897;28;20460;-70
2022/04/18 01:08:28;;;;;;;15.53;11.80;;;7.60;99.90;;;;;;5097772;28;20460;-70
2022/04/18 01:10:55;;;;;;;15.90;12.77;;;7.60;99.90;;;;;;5097706;28;20781;-70
2022/04/18 01:13:22;;;;;;;20.83;15.90;;;7.60;99.90;;;;;;5097702;28;20514;-70
2022/04/18 01:15:52;;;;;;;16.27;14.50;;;7.60;99.90;;;;;;5097422;28;20925;-70
2022/04/18 01:18:19;;;;;;;29.17;20.57;;;7.50;99.90;;;;;;5098826;28;20524;-70
2022/04/18 01:20:47;;;;;;;18.73;16.70;;;7.50;99.90;;;;;;5097443;28;20457;-70
2022/04/18 01:23:14;;;;;;;18.13;15.77;;;7.50;99.90;;;;;;5097133;28;20465;-70
2022/04/18 01:31:10;;;;;;;19.83;15.30;;;7.40;99.90;;;;;;5097619;28;20436;-70
2022/04/18 01:33:37;;;;;;;14.47;12.80;;;7.30;99.90;;;;;;5097455;28;20489;-70
2022/04/18 01:36:05;;;;;;;15.73;11.70;;;7.30;99.90;;;;;;5096975;28;20518;-70
2022/04/18 01:38:32;;;;;;;12.37;11.07;;;7.20;99.90;;;;;;5097174;28;20468;-69
2022/04/18 01:40:58;;;;;;;14.30;11.67;;;7.20;99.90;;;;;;5097102;28;20457;-70
2022/04/18 01:43:25;;;;;;;14.70;11.50;;;7.20;99.90;;;;;;5096942;28;20458;-69
2022/04/18 01:45:52;;;;;;;12.83;10.97;;;7.20;99.90;;;;;;5097086;28;20535;-69
2022/04/18 01:48:18;;;;;;;12.27;9.90;;;7.10;99.90;;;;;;5096998;28;20828;-70
2022/04/18 01:50:45;;;;;;;12.47;10.23;;;7.10;99.90;;;;;;5096932;28;20469;-70
2022/04/18 01:53:13;;;;;;;12.53;10.80;;;7.10;99.90;;;;;;5104626;28;20501;-71
2022/04/18 01:55:40;;;;;;;14.50;9.67;;;7.10;99.90;;;;;;5117068;28;20491;-70
2022/04/18 01:58:08;;;;;;;12.20;9.53;;;7.10;99.90;;;;;;5116995;28;20463;-70
2022/04/18 02:00:35;;;;;;;10.50;9.40;;;7.00;99.90;;;;;;5116665;28;20457;-70
2022/04/18 02:03:02;;;;;;;12.60;8.93;;;7.00;99.90;;;;;;5116693;28;20912;-70
2022/04/18 02:05:29;;;;;;;13.90;10.37;;;7.00;99.90;;;;;;5116607;28;20480;-70
2022/04/18 02:07:55;;;;;;;12.93;9.47;;;7.00;99.90;;;;;;5116986;28;20460;-70
2022/04/18 02:10:23;;;;;;;11.80;9.53;;;7.00;99.90;;;;;;5116440;28;20931;-70
2022/04/18 02:12:50;;;;;;;12.87;9.67;;;6.90;99.90;;;;;;5116884;28;20464;-69
2022/04/18 02:15:17;;;;;;;11.87;9.67;;;6.90;99.90;;;;;;5116958;28;20467;-70
2022/04/18 02:17:44;;;;;;;12.73;9.20;;;6.80;99.90;;;;;;5116376;28;20463;-70
2022/04/18 02:20:11;;;;;;;11.93;9.50;;;6.80;99.90;;;;;;5116745;28;20456;-70
2022/04/18 02:22:38;;;;;;;11.80;9.67;;;6.80;99.90;;;;;;5116361;28;20889;-70
2022/04/18 02:25:05;;;;;;;11.47;9.77;;;6.80;99.90;;;;;;5116899;28;20843;-70
2022/04/18 02:27:33;;;;;;;14.53;9.93;;;6.80;99.90;;;;;;5116999;28;20829;-70
2022/04/18 02:30:00;;;;;;;20.70;15.37;;;6.80;99.90;;;;;;5116455;28;20493;-70
2022/04/18 02:35:11;;;;;;;10.03;8.63;;;6.70;99.90;;;;;;5116489;28;20797;-70
2022/04/18 02:37:38;;;;;;;10.00;8.70;;;6.60;99.90;;;;;;5115241;28;20452;-70
2022/04/18 02:40:07;;;;;;;10.97;9.13;;;6.50;99.90;;;;;;5116450;28;20830;-70
2022/04/18 02:42:35;;;;;;;12.10;9.87;;;6.50;99.90;;;;;;5116015;28;20452;-70
2022/04/18 02:45:02;;;;;;;10.60;9.03;;;6.40;99.90;;;;;;5115841;28;20964;-70
2022/04/18 02:47:28;;;;;;;13.10;10.10;;;6.30;99.90;;;;;;5116289;28;20787;-70
2022/04/18 02:49:55;;;;;;;13.63;9.00;;;6.40;99.90;;;;;;5113322;28;20456;-70
2022/04/18 02:52:22;;;;;;;9.37;7.93;;;6.40;99.90;;;;;;5095684;28;20458;-70
2022/04/18 02:54:49;;;;;;;11.40;10.20;;;6.40;99.90;;;;;;5095609;28;20457;-70
2022/04/18 02:57:15;;;;;;;15.33;9.90;;;6.30;99.90;;;;;;5095710;28;20437;-70
2022/04/18 02:59:43;;;;;;;9.33;8.33;;;6.30;99.90;;;;;;5095591;28;20465;-70
2022/04/18 03:02:10;;;;;;;11.10;8.83;;;6.20;99.90;;;;;;5095426;28;20475;-71
2022/04/18 03:04:37;;;;;;;12.70;10.30;;;6.20;99.90;;;;;;5095490;28;20490;-69
2022/04/18 03:07:04;;;;;;;12.03;9.30;;;6.20;99.90;;;;;;5095544;28;20461;-70
2022/04/18 03:09:31;;;;;;;11.50;9.53;;;6.20;99.90;;;;;;5095179;28;20453;-69
2022/04/18 03:11:58;;;;;;;10.20;9.07;;;6.10;99.90;;;;;;5095476;28;20457;-69
2022/04/18 03:14:25;;;;;;;11.13;9.37;;;6.10;99.90;;;;;;5095963;28;20449;-71
2022/04/18 03:16:53;;;;;;;14.10;10.10;;;6.00;99.90;;;;;;5095915;28;20493;-70
2022/04/18 03:19:20;;;;;;;13.17;10.13;;;6.00;99.90;;;;;;5095561;28;20739;-70
2022/04/18 03:21:48;;;;;;;11.33;8.40;;;6.00;99.90;;;;;;5094495;28;20996;-70
2022/04/18 03:24:15;;;;;;;11.17;9.30;;;6.00;99.90;;;;;;5095098;28;20509;-70
2022/04/18 03:26:41;;;;;;;10.13;8.70;;;5.90;99.90;;;;;;5095295;28;20835;-70
2022/04/18 03:29:08;;;;;;;12.37;9.60;;;5.90;99.90;;;;;;5094925;28;20552;-70
2022/04/18 03:31:35;;;;;;;12.90;10.17;;;5.90;99.90;;;;;;5094714;28;20544;-70
2022/04/18 03:34:03;;;;;;;13.40;9.67;;;5.80;99.90;;;;;;5094868;28;20532;-70
2022/04/18 03:41:58;;;;;;;11.90;8.70;;;5.80;99.90;;;;;;5104834;28;20455;-69
2022/04/18 03:44:25;;;;;;;15.63;10.23;;;5.80;99.90;;;;;;5095761;28;20489;-70
2022/04/18 03:46:52;;;;;;;13.80;8.97;;;5.70;99.90;;;;;;5094606;28;20461;-70
2022/04/18 03:49:20;;;;;;;13.43;9.70;;;5.80;99.90;;;;;;5094302;28;20943;-70
2022/04/18 03:51:47;;;;;;;11.70;9.77;;;5.80;99.90;;;;;;5094850;28;20453;-70
2022/04/18 03:54:14;;;;;;;9.63;8.40;;;5.70;99.90;;;;;;5094282;28;20914;-70
2022/04/18 03:56:41;;;;;;;11.13;9.20;;;5.70;99.90;;;;;;5094497;28;20480;-70
2022/04/18 03:59:08;;;;;;;12.53;8.90;;;5.70;99.90;;;;;;5094821;28;20464;-70
2022/04/18 04:01:35;;;;;;;13.73;9.57;;;5.70;99.90;;;;;;5094415;28;20932;-70
2022/04/18 04:04:02;;;;;;;14.50;10.37;;;5.70;99.90;;;;;;5094465;28;20522;-70
2022/04/18 04:06:30;;;;;;;13.20;10.60;;;5.70;99.90;;;;;;5094292;28;20930;-70
2022/04/18 04:08:56;;;;;;;11.40;8.80;;;5.60;99.90;;;;;;5094444;28;20457;-70
2022/04/18 04:11:23;;;;;;;12.60;9.40;;;5.60;99.90;;;;;;5094259;28;20457;-70
2022/04/18 04:13:50;;;;;;;12.00;9.37;;;5.60;99.90;;;;;;5094582;28;20461;-70
2022/04/18 04:16:18;;;;;;;13.97;9.90;;;5.60;99.90;;;;;;5094508;28;20453;-70
2022/04/18 04:18:45;;;;;;;13.57;10.20;;;5.60;99.90;;;;;;5093873;28;20829;-70
2022/04/18 04:21:11;;;;;;;13.97;9.20;;;5.60;99.90;;;;;;5093738;28;20468;-70
2022/04/18 04:23:39;;;;;;;15.50;10.23;;;5.60;99.90;;;;;;5092569;28;20789;-70
2022/04/18 04:26:07;;;;;;;13.70;9.83;;;5.50;99.90;;;;;;5093429;28;20816;-70
2022/04/18 04:28:34;;;;;;;13.73;10.17;;;5.50;99.90;;;;;;5093233;28;20494;-70
2022/04/18 04:31:02;;;;;;;11.67;9.53;;;5.50;99.90;;;;;;5093585;28;20457;-70
2022/04/18 04:33:30;;;;;;;12.97;9.57;;;5.50;99.90;;;;;;5093830;28;20500;-70
2022/04/18 04:35:57;;;;;;;14.97;10.33;;;5.50;99.90;;;;;;5095271;28;20463;-70
2022/04/18 04:38:24;;;;;;;16.97;11.10;;;5.40;99.90;;;;;;5095332;28;20461;-70
2022/04/18 04:40:53;;;;;;;14.93;10.53;;;5.40;99.90;;;;;;5094377;28;20484;-69
2022/04/18 04:43:19;;;;;;;12.77;9.67;;;5.40;99.90;;;;;;5094335;28;20454;-70
2022/04/18 04:45:46;;;;;;;13.90;9.50;;;5.40;99.90;;;;;;5093894;28;20509;-69
2022/04/18 04:48:13;;;;;;;14.60;10.67;;;5.40;99.90;;;;;;5093976;28;20471;-69
2022/04/18 04:50:41;;;;;;;14.60;10.30;;;5.40;99.90;;;;;;5094101;28;20792;-69
2022/04/18 04:53:08;;;;;;;14.40;10.20;;;5.50;99.90;;;;;;5092431;28;21013;-70
2022/04/18 04:55:37;;;;;;;12.87;10.70;;;5.50;99.90;;;;;;5093977;28;20477;-70
2022/04/18 04:58:05;;;;;;;15.80;10.80;;;5.50;99.90;;;;;;5093204;28;20959;-70
2022/04/18 05:00:32;;;;;;;15.23;10.93;;;5.50;99.90;;;;;;5095741;28;20457;-70
2022/04/18 05:02:59;;;;;;;16.20;11.20;;;5.50;99.90;;;;;;5097387;28;20465;-70
2022/04/18 05:05:25;;;;;;;19.00;11.20;;;5.50;99.90;;;;;;5115717;28;20471;-69
2022/04/18 05:07:52;;;;;;;16.20;10.90;;;5.50;99.90;;;;;;5118251;28;20588;-69
2022/04/18 05:10:19;;;;;;;16.00;11.37;;;5.50;99.90;;;;;;5118137;28;20456;-70
2022/04/18 05:12:45;;;;;;;17.50;12.17;;;5.60;99.90;;;;;;5118120;28;20790;-70
2022/04/18 05:15:13;;;;;;;15.80;11.20;;;5.60;99.90;;;;;;5117954;28;20994;-70
2022/04/18 05:17:40;;;;;;;17.23;12.07;;;5.70;99.90;;;;;;5118113;28;20780;-70
2022/04/18 05:20:09;;;;;;;21.20;13.20;;;5.70;99.90;;;;;;5117884;28;20839;-70
2022/04/18 05:22:36;;;;;;;14.30;10.97;;;5.70;99.90;;;;;;5117954;28;20461;-70
2022/04/18 05:25:03;;;;;;;16.23;11.60;;;5.70;99.90;;;;;;5118531;28;20511;-70
2022/04/18 05:27:30;;;;;;;17.07;12.20;;;5.80;99.90;;;;;;5117824;28;20457;-71
2022/04/18 05:29:57;;;;;;;22.90;12.07;;;5.90;99.90;;;;;;5117765;28;20517;-70
2022/04/18 05:32:25;;;;;;;20.17;12.40;;;5.90;99.90;;;;;;5117684;28;20468;-70
2022/04/18 05:34:51;;;;;;;21.07;13.50;;;6.00;99.90;;;;;;5117392;28;20889;-70
2022/04/18 05:37:18;;;;;;;16.80;12.10;;;6.00;99.90;;;;;;5117222;28;20936;-70
2022/04/18 05:39:45;;;;;;;17.93;12.10;;;6.10;99.90;;;;;;5118069;28;20798;-69
2022/04/18 05:42:11;;;;;;;18.13;12.73;;;6.20;99.90;;;;;;5117131;28;20909;-69
2022/04/18 05:44:38;;;;;;;16.97;12.77;;;6.20;99.90;;;;;;5117343;28;20892;-70
2022/04/18 05:47:05;;;;;;;15.37;11.33;;;6.20;99.90;;;;;;5117230;28;20510;-70
2022/04/18 05:49:33;;;;;;;17.63;13.20;;;6.30;99.90;;;;;;5117100;28;20456;-70
2022/04/18 05:52:00;;;;;;;16.50;11.80;;;6.40;99.90;;;;;;5117361;28;20448;-69
2022/04/18 05:54:27;;;;;;;18.13;12.43;;;6.40;99.90;;;;;;5117214;28;20460;-70
2022/04/18 05:56:53;;;;;;;16.70;11.43;;;6.50;99.90;;;;;;5117077;28;20484;-70
2022/04/18 05:59:20;;;;;;;18.30;13.33;;;6.60;99.90;;;;;;5117315;28;20467;-70
2022/04/18 06:01:47;;;;;;;17.50;11.97;;;6.60;99.90;;;;;;5116917;28;20456;-70
2022/04/18 06:04:13;;;;;;;24.00;13.30;;;6.70;99.90;;;;;;5117277;28;20535;-70
2022/04/18 06:06:42;;;;;;;19.53;12.07;;;6.70;99.90;;;;;;5116934;28;20519;-70
2022/04/18 06:09:08;;;;;;;19.13;11.93;;;6.80;99.90;;;;;;5117242;28;20456;-70
2022/04/18 06:11:35;;;;;;;22.53;12.90;;;6.80;99.90;;;;;;5117318;28;20452;-70
2022/04/18 06:14:02;;;;;;;20.87;12.40;;;6.90;99.90;;;;;;5117010;28;20788;-70
2022/04/18 06:16:29;;;;;;;20.27;11.87;;;6.90;99.90;;;;;;5116920;28;20536;-70
2022/04/18 06:18:56;;;;;;;18.33;11.50;;;7.00;99.90;;;;;;5116684;28;20451;-70
2022/04/18 06:21:22;;;;;;;20.87;12.10;;;7.10;99.90;;;;;;5116797;28;20484;-70
2022/04/18 06:23:51;;;;;;;14.17;10.80;;;7.10;99.90;;;;;;5116876;28;20510;-69
2022/04/18 06:26:18;;;;;;;15.30;11.40;;;7.20;99.90;;;;;;5116434;28;20567;-70
2022/04/18 06:28:45;;;;;;;18.27;12.70;;;7.20;99.90;;;;;;5116858;28;20473;-70
2022/04/18 06:31:11;;;;;;;21.60;11.17;;;7.30;99.90;;;;;;5116206;28;20452;-69
2022/04/18 06:33:38;;;;;;;20.40;11.60;;;7.40;99.90;;;;;;5117735;28;20457;-69
2022/04/18 06:36:05;;;;;;;15.27;11.67;;;7.40;99.90;;;;;;5116205;28;20913;-69
2022/04/18 06:38:32;;;;;;;15.43;11.17;;;7.50;99.90;;;;;;5116523;28;20461;-69
2022/04/18 06:41:01;;;;;;;14.60;10.60;;;7.60;99.90;;;;;;5116048;28;20461;-69
2022/04/18 06:43:28;;;;;;;15.40;11.77;;;7.70;99.90;;;;;;5116645;28;20523;-70
2022/04/18 06:45:55;;;;;;;14.83;11.00;;;7.80;99.90;;;;;;5116273;28;20472;-70
2022/04/18 06:48:22;;;;;;;14.30;10.50;;;7.90;99.90;;;;;;5116403;28;20456;-71
2022/04/18 06:50:49;;;;;;;16.40;10.20;;;8.00;99.90;;;;;;5116327;28;20559;-70
2022/04/18 06:53:15;;;;;;;13.53;10.20;;;8.00;99.90;;;;;;5116248;28;20453;-70
2022/04/18 06:58:29;;;;;;;14.20;9.97;;;8.10;99.90;;;;;;5116123;28;20923;-70
2022/04/18 07:00:56;;;;;;;15.50;9.80;;;8.10;99.90;;;;;;5115822;28;20928;-70
2022/04/18 07:03:22;;;;;;;14.43;10.70;;;8.20;99.90;;;;;;5115946;28;20457;-70
2022/04/18 07:05:50;;;;;;;14.80;10.47;;;8.30;99.90;;;;;;5116027;28;20476;-70
2022/04/18 07:08:16;;;;;;;14.97;10.50;;;8.30;99.90;;;;;;5115994;28;20456;-70
2022/04/18 07:10:43;;;;;;;10.97;9.27;;;8.40;99.90;;;;;;5115985;28;20460;-70
2022/04/18 07:13:10;;;;;;;12.60;9.13;;;8.50;99.90;;;;;;5115721;28;20464;-70
2022/04/18 07:15:38;;;;;;;12.07;9.17;;;8.60;99.90;;;;;;5115274;28;20539;-69
2022/04/18 07:18:05;;;;;;;14.10;8.47;;;8.70;99.90;;;;;;5115611;28;20517;-70
2022/04/18 07:20:31;;;;;;;10.97;9.27;;;8.80;99.90;;;;;;5115720;28;20452;-70
2022/04/18 07:22:58;;;;;;;13.53;9.20;;;8.90;99.90;;;;;;5114957;28;20536;-70
2022/04/18 07:25:25;;;;;;;13.70;10.13;;;9.00;99.90;;;;;;5114933;28;20491;-70
2022/04/18 07:27:52;;;;;;;19.90;14.33;;;9.10;99.90;;;;;;5115358;28;20828;-70
2022/04/18 07:30:18;;;;;;;18.83;12.30;;;9.20;99.90;;;;;;5115490;28;20525;-70
2022/04/18 07:32:46;;;;;;;19.97;15.30;;;9.40;99.90;;;;;;5115371;28;20459;-70
2022/04/18 07:35:13;;;;;;;14.27;12.13;;;9.40;99.90;;;;;;5115547;28;20911;-70
2022/04/18 07:38:48;;;;;;;15.77;12.23;;;9.50;99.90;;;;;;5115517;28;20804;-70
2022/04/18 07:40:28;;;;;;;16.47;11.87;;;9.60;99.90;;;;;;5114853;28;20448;-70
2022/04/18 07:42:55;;;;;;;12.80;8.90;;;9.70;99.90;;;;;;5115163;28;20453;-70
2022/04/18 07:45:22;;;;;;;13.33;9.80;;;9.80;99.90;;;;;;5115391;28;20533;-70
2022/04/18 07:47:52;;;;;;;13.53;10.67;;;9.90;99.90;;;;;;5114759;28;20539;-70
2022/04/18 07:50:19;;;;;;;15.90;11.87;;;10.00;99.90;;;;;;5115313;28;20567;-71
2022/04/18 07:52:45;;;;;;;10.67;7.97;;;10.10;99.90;;;;;;5115062;28;20532;-71
2022/04/18 07:55:12;;;;;;;12.27;10.10;;;10.20;99.90;;;;;;5115119;28;20483;-70
2022/04/18 07:57:39;;;;;;;13.50;10.03;;;10.20;99.90;;;;;;5114624;28;20436;-71
2022/04/18 08:00:07;;;;;;;11.30;9.00;;;10.30;99.90;;;;;;5115080;28;20784;-70
2022/04/18 08:02:34;;;;;;;8.60;7.70;;;10.40;99.90;;;;;;5115114;28;20540;-70
2022/04/18 08:05:02;;;;;;;13.30;9.53;;;10.50;99.90;;;;;;5114937;28;20460;-70
2022/04/18 08:07:30;;;;;;;11.60;7.83;;;10.50;99.90;;;;;;5114715;28;20510;-69
2022/04/18 08:09:57;;;;;;;13.20;10.20;;;10.60;99.90;;;;;;5114590;28;20504;-71
2022/04/18 08:12:24;;;;;;;10.13;8.43;;;10.70;99.90;;;;;;5114931;28;20510;-70
2022/04/18 08:14:50;;;;;;;9.60;6.87;;;10.70;99.90;;;;;;5114923;28;20791;-71
2022/04/18 08:17:17;;;;;;;8.30;5.80;;;10.80;99.90;;;;;;5114273;28;20463;-70
2022/04/18 08:19:44;;;;;;;7.70;6.37;;;10.80;99.90;;;;;;5114853;28;20470;-70
2022/04/18 08:22:12;;;;;;;5.20;4.70;;;10.90;99.90;;;;;;5114559;28;20456;-70
2022/04/18 08:24:38;;;;;;;8.90;4.50;;;10.90;99.90;;;;;;5114560;28;20796;-70
2022/04/18 08:27:06;;;;;;;5.53;4.40;;;11.00;99.90;;;;;;5114543;28;20576;-70
2022/04/18 08:29:32;;;;;;;8.37;5.20;;;11.00;99.90;;;;;;5114783;28;20889;-70
2022/04/18 08:31:59;;;;;;;6.57;5.00;;;11.10;99.90;;;;;;5114412;28;20912;-70
2022/04/18 08:34:26;;;;;;;7.20;5.00;;;11.20;99.90;;;;;;5116603;28;20461;-70
2022/04/18 08:36:52;;;;;;;9.50;4.33;;;11.30;99.90;;;;;;5118305;28;20448;-70
2022/04/18 08:39:20;;;;;;;3.80;2.67;;;11.30;99.90;;;;;;5118431;28;20834;-70
2022/04/18 08:41:52;;;;;;;7.20;4.20;;;11.40;99.90;;;;;;5118252;28;20761;-70
2022/04/18 08:44:20;;;;;;;5.90;4.50;;;11.40;99.90;;;;;;5118353;28;20441;-70
2022/04/18 08:46:47;;;;;;;5.27;4.47;;;11.50;99.90;;;;;;5118091;28;20808;-70
2022/04/18 08:54:44;;;;;;;5.83;4.30;;;11.80;99.90;;;;;;5087287;28;20470;-70
2022/04/18 08:57:11;;;;;;;6.37;4.77;;;11.90;99.90;;;;;;5117850;28;20970;-71
2022/04/18 08:59:37;;;;;;;5.63;4.03;;;12.00;99.90;;;;;;5117929;28;20951;-70
2022/04/18 09:02:04;;;;;;;7.17;4.43;;;12.00;99.90;;;;;;5118809;28;20452;-70
2022/04/18 09:04:31;;;;;;;3.80;3.20;;;12.00;99.90;;;;;;5118189;28;20448;-69
2022/04/18 09:07:09;;;;;;;3.43;3.13;;;12.00;99.90;;;;;;5118063;28;20506;-69
2022/04/18 09:09:37;;;;;;;5.60;3.97;;;12.10;99.90;;;;;;5118957;28;20436;-70
2022/04/18 09:12:17;;;;;;;3.90;3.50;;;12.20;99.90;;;;;;5117891;28;20464;-70
2022/04/18 09:14:45;;;;;;;3.90;3.50;;;12.20;99.90;;;;;;5118520;28;20440;-70
2022/04/18 09:17:12;;;;;;;4.73;3.60;;;12.30;99.90;;;;;;5117559;28;20449;-71
2022/04/18 09:19:39;;;;;;;3.70;3.30;;;12.50;99.90;;;;;;5117839;28;20811;-70
2022/04/18 09:22:07;;;;;;;3.30;3.00;;;12.60;99.90;;;;;;5117717;28;20463;-70
2022/04/18 09:24:35;;;;;;;8.20;3.47;;;12.70;99.90;;;;;;5117187;28;20471;-70
2022/04/18 09:27:07;;;;;;;4.40;3.40;;;12.80;99.90;;;;;;5117283;28;20507;-70
2022/04/18 09:29:38;;;;;;;3.57;2.60;;;12.80;99.90;;;;;;5117518;28;20445;-70
2022/04/18 09:32:08;;;;;;;3.23;2.60;;;12.90;99.90;;;;;;5117905;28;20491;-70
2022/04/18 09:34:35;;;;;;;11.03;8.63;;;12.80;99.90;;;;;;5117855;28;20543;-70
2022/04/18 09:37:12;;;;;;;4.90;4.07;;;12.80;99.90;;;;;;5117509;28;20854;-70
2022/04/18 09:39:42;;;;;;;4.60;4.13;;;12.80;99.90;;;;;;5117071;28;20921;-70
2022/04/18 09:42:11;;;;;;;5.50;2.83;;;12.80;99.90;;;;;;5117360;28;20456;-69
2022/04/18 09:44:38;;;;;;;6.50;3.93;;;12.80;99.90;;;;;;5117541;28;20492;-69
2022/04/18 09:47:04;;;;;;;5.30;2.83;;;12.90;99.90;;;;;;5116656;28;20480;-70
2022/04/18 09:49:37;;;;;;;4.40;3.00;;;12.90;99.90;;;;;;5117473;28;20453;-71
2022/04/18 09:52:07;;;;;;;4.10;3.30;;;13.00;99.90;;;;;;5117300;28;20469;-70
2022/04/18 09:54:34;;;;;;;7.67;2.90;;;13.10;99.90;;;;;;5117240;28;20909;-71
2022/04/18 09:57:05;;;;;;;7.90;5.43;;;13.20;99.30;;;;;;5116909;28;20480;-70
2022/04/18 09:59:34;;;;;;;4.83;2.73;;;13.30;98.20;;;;;;5117109;28;20477;-70
2022/04/18 10:02:01;;;;;;;5.37;3.13;;;13.40;99.20;;;;;;5117452;28;20468;-70
2022/04/18 10:04:28;;;;;;;2.70;2.50;;;13.50;98.70;;;;;;5117056;28;20495;-71
2022/04/18 10:06:56;;;;;;;3.20;2.90;;;13.60;98.90;;;;;;5117165;28;20583;-70
2022/04/18 10:09:24;;;;;;;2.80;2.20;;;13.70;96.10;;;;;;5117148;28;20488;-70
2022/04/18 10:11:52;;;;;;;4.13;2.00;;;13.80;96.00;;;;;;5116975;28;20456;-70
2022/04/18 10:14:19;;;;;;;3.03;2.33;;;13.90;95.00;;;;;;5117057;28;20784;-70
2022/04/18 10:16:48;;;;;;;2.40;2.20;;;14.00;94.80;;;;;;5116849;28;20784;-73
2022/04/18 10:19:31;;;;;;;2.80;2.60;;;14.00;94.40;;;;;;5116832;28;20483;-71
2022/04/18 10:22:11;;;;;;;3.90;2.30;;;14.10;94.50;;;;;;5116562;28;20457;-70
2022/04/18 10:25:06;;;;;;;4.07;2.57;;;14.10;95.00;;;;;;5116651;28;20451;-71
2022/04/18 10:27:55;;;;;;;3.27;2.40;;;14.30;93.70;;;;;;5116510;28;20555;-70
2022/04/18 10:30:22;;;;;;;2.40;2.00;;;14.40;91.60;;;;;;5116426;28;20460;-70
2022/04/18 10:32:52;;;;;;;2.37;1.80;;;14.40;91.40;;;;;;5116478;28;20448;-69
2022/04/18 10:35:22;;;;;;;2.47;2.10;;;14.30;90.30;;;;;;5116720;28;20453;-70
2022/04/18 10:37:53;;;;;;;2.20;1.27;;;14.20;90.70;;;;;;5116406;28;20433;-71
2022/04/18 10:40:20;;;;;;;2.17;1.47;;;14.20;88.90;;;;;;5117146;28;20436;-71
2022/04/18 10:42:47;;;;;;;2.90;1.50;;;14.40;88.90;;;;;;5115786;28;20471;-70
2022/04/18 10:45:15;;;;;;;2.73;1.80;;;14.40;87.90;;;;;;5115787;28;20459;-69
2022/04/18 10:48:04;;;;;;;2.17;1.97;;;14.60;88.80;;;;;;5115896;28;20487;-71
2022/04/18 10:50:37;;;;;;;3.73;2.10;;;14.70;87.90;;;;;;5097886;28;20517;-71
2022/04/18 10:53:19;;;;;;;2.47;2.10;;;14.90;87.70;;;;;;5116301;28;20456;-70
2022/04/18 10:56:09;;;;;;;2.47;2.20;;;14.90;87.50;;;;;;5117094;28;20483;-70
2022/04/18 10:58:36;;;;;;;2.37;2.17;;;15.00;87.20;;;;;;5116116;28;20529;-70
2022/04/18 11:01:07;;;;;;;3.60;2.00;;;15.10;86.20;;;;;;5116286;28;20453;-70
2022/04/18 11:03:57;;;;;;;3.23;2.60;;;15.20;86.10;;;;;;5115820;28;20540;-70
2022/04/18 11:06:45;;;;;;;2.40;2.20;;;15.30;84.20;;;;;;5116018;28;20518;-70
2022/04/18 11:09:14;;;;;;;2.83;2.07;;;15.30;84.30;;;;;;5115794;28;20922;-70
2022/04/18 11:11:45;;;;;;;3.93;3.10;;;15.50;84.50;;;;;;5115746;28;20482;-71
2022/04/18 11:14:18;;;;;;;3.20;1.90;;;15.60;83.50;;;;;;5115644;28;20437;-70
2022/04/18 11:16:49;;;;;;;2.60;2.40;;;15.80;81.40;;;;;;5115710;28;20509;-70
2022/04/18 11:19:23;;;;;;;3.37;2.40;;;15.60;79.70;;;;;;5115468;28;20448;-70
2022/04/18 11:22:21;;;;;;;1.90;1.60;;;15.70;79.70;;;;;;5115864;28;20494;-70
2022/04/18 11:25:02;;;;;;;1.90;1.70;;;15.90;78.50;;;;;;5112148;28;20484;-70
2022/04/18 11:27:34;;;;;;;3.67;2.10;;;16.70;78.60;;;;;;5115248;28;20563;-70
2022/04/18 11:30:03;;;;;;;1.93;1.63;;;17.70;74.10;;;;;;5116038;28;20517;-70
2022/04/18 11:32:32;;;;;;;2.30;1.73;;;18.60;70.20;;;;;;5115454;28;20489;-70
2022/04/18 11:35:05;;;;;;;4.87;3.73;;;19.60;62.40;;;;;;5115137;28;20562;-71
2022/04/18 11:37:34;;;;;;;2.10;1.90;;;20.30;57.20;;;;;;5115391;28;20531;-70
2022/04/18 11:40:04;;;;;;;3.97;2.43;;;21.10;55.50;;;;;;5115760;28;20464;-70
2022/04/18 11:42:32;;;;;;;4.17;3.77;;;21.80;52.00;;;;;;5115237;28;20839;-70
2022/04/18 11:45:00;;;;;;;3.10;2.77;;;22.30;50.70;;;;;;5115164;28;20490;-70
2022/04/18 11:47:30;;;;;;;2.90;2.20;;;22.60;48.30;;;;;;5115137;28;20971;-70
2022/04/18 11:49:58;;;;;;;6.37;2.30;;;22.90;47.20;;;;;;5115450;28;20501;-71
2022/04/18 11:52:28;;;;;;;2.63;2.30;;;23.10;44.80;;;;;;5115465;28;20504;-70
2022/04/18 11:54:57;;;;;;;2.03;1.70;;;22.50;44.10;;;;;;5114872;28;20463;-70
2022/04/18 11:57:24;;;;;;;3.60;2.10;;;22.30;44.40;;;;;;5115404;28;20494;-70
2022/04/18 11:59:51;;;;;;;2.20;2.00;;;22.40;43.30;;;;;;5115285;28;20467;-70
2022/04/18 12:08:01;;;;;;;2.23;2.03;;;23.10;42.40;;;;;;5114106;28;20602;-71
2022/04/18 12:10:31;;;;;;;2.60;1.63;;;23.70;42.00;;;;;;5121003;28;20927;-71
2022/04/18 12:12:59;;;;;;;3.20;1.83;;;24.20;40.30;;;;;;5121623;28;20440;-70
2022/04/18 12:15:28;;;;;;;1.87;1.47;;;25.00;40.20;;;;;;5121271;28;20935;-70
2022/04/18 12:17:56;;;;;;;2.37;1.60;;;25.30;37.70;;;;;;5121206;28;20448;-70
2022/04/18 12:20:25;;;;;;;1.90;1.40;;;25.20;36.20;;;;;;5121555;28;20448;-70
2022/04/18 12:22:53;;;;;;;1.90;1.77;;;24.80;35.50;;;;;;5121478;28;20822;-70
2022/04/18 12:25:26;;;;;;;1.70;1.30;;;24.80;34.90;;;;;;5121464;28;20479;-69
2022/04/18 12:27:54;;;;;;;1.90;1.43;;;24.70;34.50;;;;;;5121079;28;20912;-71
2022/04/18 12:30:21;;;;;;;4.20;1.80;;;24.60;34.40;;;;;;5121325;28;20475;-71
2022/04/18 12:32:48;;;;;;;4.53;1.40;;;24.60;34.60;;;;;;5121348;28;20796;-71
2022/04/18 12:35:17;;;;;;;3.20;1.30;;;24.70;33.90;;;;;;5121334;28;20452;-71
2022/04/18 12:37:48;;;;;;;1.50;1.27;;;25.10;33.80;;;;;;5121135;28;20543;-71
2022/04/18 12:40:16;;;;;;;2.33;1.27;;;25.10;33.30;;;;;;5121298;28;20460;-70
2022/04/18 12:42:51;;;;;;;2.17;1.23;;;25.00;32.40;;;;;;5121333;28;20466;-71
2022/04/18 12:45:18;;;;;;;2.23;1.57;;;25.00;33.00;;;;;;5121325;28;20439;-71
2022/04/18 12:47:45;;;;;;;1.27;1.13;;;25.40;32.40;;;;;;5120716;28;20527;-70
2022/04/18 12:50:14;;;;;;;1.63;1.10;;;25.60;30.70;;;;;;5120886;28;20495;-70
2022/04/18 12:52:49;;;;;;;1.40;1.00;;;25.70;30.50;;;;;;5120954;28;20456;-69
2022/04/18 12:55:15;;;;;;;1.40;1.20;;;26.30;30.00;;;;;;5120667;28;20482;-70
2022/04/18 12:57:48;;;;;;;2.00;1.63;;;26.70;29.10;;;;;;5121034;28;20436;-71
2022/04/18 13:00:17;;;;;;;2.13;1.40;;;27.00;29.10;;;;;;5121042;28;20468;-70
2022/04/18 13:03:01;;;;;;;1.67;1.40;;;26.60;29.10;;;;;;5121334;28;20456;-70
2022/04/18 13:05:29;;;;;;;1.97;1.47;;;26.80;29.00;;;;;;5120945;28;20455;-71
2022/04/18 13:08:04;;;;;;;1.20;0.90;;;26.90;28.20;;;;;;5120947;28;20480;-71
2022/04/18 13:10:32;;;;;;;2.43;1.03;;;26.60;27.50;;;;;;5121518;28;20550;-70
2022/04/18 13:13:17;;;;;;;1.50;1.20;;;26.40;27.50;;;;;;5121023;28;20472;-70
2022/04/18 13:15:46;;;;;;;1.67;1.30;;;27.00;27.60;;;;;;5121011;28;20441;-71
2022/04/18 13:18:21;;;;;;;4.50;1.40;;;28.00;26.80;;;;;;5120867;28;20843;-70